createdAt,value
2023-10-03T00:00:15.192Z,20.40
2023-10-03T00:05:23.044Z,20.50
2023-10-03T00:10:26.811Z,20.50
2023-10-03T00:15:29.821Z,20.70
2023-10-03T00:20:34.216Z,20.60
2023-10-03T00:25:37.621Z,20.80
2023-10-03T00:30:41.617Z,21.00
2023-10-03T00:35:46.808Z,21.10
2023-10-03T00:40:56.774Z,21.30
2023-10-03T00:45:59.860Z,21.50
2023-10-03T00:51:06.099Z,21.60
2023-10-03T00:56:12.813Z,21.60
2023-10-03T01:01:16.592Z,21.80
2023-10-03T01:06:21.025Z,21.90
2023-10-03T01:11:25.941Z,22.00
2023-10-03T01:16:33.042Z,22.10
2023-10-03T01:21:37.570Z,22.20
2023-10-03T01:26:41.917Z,22.20
2023-10-03T01:31:45.327Z,22.30
2023-10-03T01:36:49.916Z,22.40
2023-10-03T01:41:54.551Z,22.50
2023-10-03T01:46:57.503Z,22.60
2023-10-03T01:52:00.419Z,22.70
2023-10-03T01:57:04.839Z,22.80
2023-10-03T02:02:07.868Z,22.70
2023-10-03T02:07:11.632Z,22.80
2023-10-03T02:12:15.876Z,22.80
2023-10-03T02:17:19.325Z,22.90
2023-10-03T02:22:25.567Z,22.90
2023-10-03T02:27:29.881Z,23.00
2023-10-03T02:32:33.101Z,23.00
2023-10-03T02:37:36.141Z,23.10
2023-10-03T02:42:40.749Z,23.10
2023-10-03T02:47:45.980Z,23.10
2023-10-03T02:52:49.428Z,23.20
2023-10-03T02:57:54.119Z,23.10
2023-10-03T03:02:57.676Z,23.20
2023-10-03T03:08:02.468Z,23.30
2023-10-03T03:13:09.123Z,23.30
2023-10-03T03:18:13.476Z,23.40
2023-10-03T03:23:17.631Z,23.50
2023-10-03T03:28:24.909Z,23.40
2023-10-03T03:33:29.398Z,23.40
2023-10-03T03:38:34.649Z,23.40
2023-10-03T03:43:39.514Z,23.50
2023-10-03T03:48:42.620Z,23.50
2023-10-03T03:53:45.811Z,23.60
2023-10-03T03:58:50.552Z,23.60
2023-10-03T04:03:55.641Z,23.50
2023-10-03T04:09:07.990Z,23.60
2023-10-03T04:14:13.812Z,23.60
2023-10-03T04:19:16.891Z,23.50
2023-10-03T04:24:20.242Z,23.50
2023-10-03T04:29:24.559Z,23.60
2023-10-03T04:34:29.165Z,23.60
2023-10-03T04:39:32.510Z,23.70
2023-10-03T04:44:37.290Z,23.70
2023-10-03T04:49:40.384Z,23.70
2023-10-03T04:54:43.415Z,23.80
2023-10-03T04:59:48.820Z,23.80
2023-10-03T05:04:52.755Z,23.80
2023-10-03T05:09:57.076Z,23.80
2023-10-03T05:15:01.498Z,23.80
2023-10-03T05:20:05.701Z,23.80
2023-10-03T05:25:12.914Z,23.70
2023-10-03T05:30:17.906Z,23.70
2023-10-03T05:35:22.910Z,23.70
2023-10-03T05:40:28.234Z,23.70
2023-10-03T05:45:32.778Z,23.60
2023-10-03T05:50:36.749Z,23.60
2023-10-03T05:55:40.564Z,23.70
2023-10-03T06:00:46.057Z,23.70
2023-10-03T06:05:49.251Z,23.60
2023-10-03T06:10:52.422Z,23.70
2023-10-03T06:16:00.078Z,23.70
2023-10-03T06:21:06.883Z,23.70
2023-10-03T06:26:10.864Z,23.70
2023-10-03T06:31:15.869Z,23.70
2023-10-03T06:36:18.867Z,23.70
2023-10-03T06:41:22.948Z,23.70
2023-10-03T06:46:27.316Z,23.70
2023-10-03T06:51:30.417Z,23.70
2023-10-03T06:56:34.258Z,23.70
2023-10-03T07:01:38.746Z,23.80
2023-10-03T07:06:41.745Z,23.70
2023-10-03T07:11:48.355Z,23.90
2023-10-03T07:16:53.096Z,23.90
2023-10-03T07:21:56.642Z,23.90
2023-10-03T07:27:02.625Z,23.80
2023-10-03T07:32:07.168Z,23.80
2023-10-03T07:37:10.211Z,23.80
2023-10-03T07:42:13.782Z,23.80
2023-10-03T07:47:18.080Z,23.80
2023-10-03T07:52:21.261Z,23.80
2023-10-03T07:57:25.193Z,23.80
2023-10-03T08:02:33.655Z,23.80
2023-10-03T08:07:39.217Z,24.10
2023-10-03T08:12:42.241Z,24.30
2023-10-03T08:17:54.791Z,24.50
2023-10-03T08:23:04.043Z,24.50
2023-10-03T08:28:11.509Z,24.70
2023-10-03T08:33:18.740Z,24.90
2023-10-03T08:38:22.312Z,25.10
2023-10-03T08:43:27.872Z,25.20
2023-10-03T08:48:35.903Z,25.10
2023-10-03T08:53:41.328Z,25.10
2023-10-03T08:58:49.566Z,25.10
2023-10-03T09:04:00.648Z,25.00
2023-10-03T09:09:10.412Z,25.10
2023-10-03T09:14:20.845Z,25.20
2023-10-03T09:19:44.921Z,25.50
2023-10-03T09:24:48.639Z,25.80
2023-10-03T09:29:51.563Z,25.80
2023-10-03T09:34:59.192Z,25.90
2023-10-03T09:40:02.869Z,25.70
2023-10-03T09:45:08.315Z,25.70
2023-10-03T09:50:14.130Z,25.50
2023-10-03T09:55:23.263Z,25.50
2023-10-03T10:00:40.440Z,25.40
2023-10-03T10:05:54.780Z,25.30
2023-10-03T10:11:08.671Z,25.40
2023-10-03T10:16:14.977Z,25.30
2023-10-03T10:21:26.656Z,25.30
2023-10-03T10:26:32.172Z,25.20
2023-10-03T10:31:45.272Z,25.30
2023-10-03T10:37:10.968Z,25.30
2023-10-03T10:42:15.855Z,25.20
2023-10-03T10:47:22.192Z,25.20
2023-10-03T10:52:30.696Z,25.20
2023-10-03T10:57:33.632Z,25.10
2023-10-03T11:02:37.227Z,25.00
2023-10-03T11:07:50.921Z,25.10
2023-10-03T11:13:00.630Z,25.10
2023-10-03T11:18:06.161Z,25.10
2023-10-03T11:23:19.345Z,25.00
2023-10-03T11:28:22.582Z,25.00
2023-10-03T11:33:27.506Z,24.90
2023-10-03T11:38:32.129Z,25.10
2023-10-03T11:43:44.765Z,25.10
2023-10-03T11:48:48.113Z,25.10
2023-10-03T11:53:53.092Z,25.20
2023-10-03T11:58:56.178Z,25.10
2023-10-03T12:03:59.224Z,25.00
2023-10-03T12:09:04.065Z,25.20
2023-10-03T12:14:07.333Z,25.00
2023-10-03T12:19:12.488Z,24.90
2023-10-03T12:24:16.893Z,25.00
2023-10-03T12:29:23.348Z,25.00
2023-10-03T12:34:27.080Z,25.10
2023-10-03T12:39:32.269Z,25.00
2023-10-03T12:44:35.394Z,25.00
2023-10-03T12:49:38.444Z,24.90
2023-10-03T12:54:43.203Z,24.80
2023-10-03T12:59:46.292Z,24.80
2023-10-03T13:04:49.412Z,24.80
2023-10-03T13:09:53.761Z,24.80
2023-10-03T13:14:57.710Z,24.90
2023-10-03T13:20:01.328Z,25.00
2023-10-03T13:25:06.443Z,25.00
2023-10-03T13:30:11.368Z,25.20
2023-10-03T13:35:15.161Z,25.10
2023-10-03T13:40:20.045Z,24.80
2023-10-03T13:45:24.465Z,24.70
2023-10-03T13:50:27.710Z,24.70
2023-10-03T13:55:32.076Z,24.70
2023-10-03T14:00:36.772Z,24.70
2023-10-03T14:05:39.828Z,24.70
2023-10-03T14:10:47.173Z,24.60
2023-10-03T14:15:50.617Z,24.70
2023-10-03T14:20:53.806Z,24.70
2023-10-03T14:25:58.138Z,24.70
2023-10-03T14:31:02.938Z,24.70
2023-10-03T14:36:08.099Z,24.80
2023-10-03T14:41:13.007Z,24.50
2023-10-03T14:46:16.128Z,23.90
2023-10-03T14:51:19.202Z,23.80
2023-10-03T14:56:23.500Z,23.70
2023-10-03T15:01:26.541Z,23.60
2023-10-03T15:06:29.830Z,23.60
2023-10-03T15:11:34.496Z,23.40
2023-10-03T15:16:37.819Z,22.80
2023-10-03T15:21:41.615Z,22.20
2023-10-03T15:26:47.093Z,21.20
2023-10-03T15:31:50.054Z,21.10
2023-10-03T15:36:53.295Z,21.00
2023-10-03T15:41:57.787Z,21.10
2023-10-03T15:47:01.018Z,21.40
2023-10-03T15:52:04.783Z,20.90
2023-10-03T15:57:11.553Z,21.00
2023-10-03T16:02:14.491Z,21.20
2023-10-03T16:07:18.100Z,21.20
2023-10-03T16:12:22.434Z,21.00
2023-10-03T16:17:25.406Z,20.80
2023-10-03T16:22:28.357Z,20.60
2023-10-03T16:27:32.744Z,20.80
2023-10-03T16:32:36.328Z,20.60
2023-10-03T16:37:39.285Z,20.60
2023-10-03T16:42:46.510Z,20.70
2023-10-03T16:47:51.583Z,20.70
2023-10-03T17:05:46.068Z,20.70
2023-10-03T17:23:27.422Z,20.40
2023-10-03T17:28:32.007Z,20.80
2023-10-03T17:39:16.832Z,20.70
2023-10-03T17:44:21.974Z,20.30
2023-10-03T17:49:25.275Z,20.40
2023-10-03T17:54:34.388Z,20.40
2023-10-03T17:59:37.878Z,20.20
2023-10-03T18:04:42.557Z,20.30
2023-10-03T18:09:47.139Z,20.20
2023-10-03T18:14:51.543Z,20.30
2023-10-03T18:19:55.872Z,20.00
2023-10-03T18:25:02.579Z,20.10
2023-10-03T18:30:07.301Z,19.80
2023-10-03T18:35:12.936Z,19.70
2023-10-03T18:40:19.720Z,19.80
2023-10-03T18:45:23.217Z,19.60
2023-10-03T18:50:27.107Z,19.60
2023-10-03T18:55:33.101Z,19.80
2023-10-03T19:00:36.172Z,19.70
2023-10-03T19:05:40.021Z,19.80
2023-10-03T19:10:44.576Z,19.80
2023-10-03T19:15:48.714Z,19.80
2023-10-03T19:20:51.876Z,19.50
2023-10-03T19:25:56.250Z,19.40
2023-10-03T19:30:59.323Z,19.40
2023-10-03T19:36:02.388Z,19.20
2023-10-03T19:41:13.015Z,19.10
2023-10-03T19:46:20.022Z,19.10
2023-10-03T19:51:23.528Z,19.10
2023-10-03T19:56:28.070Z,19.10
2023-10-03T20:01:31.396Z,18.90
2023-10-03T20:06:34.300Z,19.00
2023-10-03T20:11:38.753Z,19.00
2023-10-03T20:16:42.066Z,18.90
2023-10-03T20:21:46.023Z,18.80
2023-10-03T20:26:50.310Z,18.80
2023-10-03T20:31:53.280Z,18.50
2023-10-03T20:36:58.831Z,18.30
2023-10-03T20:42:03.701Z,18.30
2023-10-03T20:47:07.585Z,18.20
2023-10-03T20:52:10.695Z,18.40
2023-10-03T20:57:15.137Z,18.30
2023-10-03T21:02:19.907Z,18.40
2023-10-03T21:07:23.259Z,18.40
2023-10-03T21:12:27.605Z,18.20
2023-10-03T21:17:32.137Z,18.10
2023-10-03T21:22:35.113Z,18.20
2023-10-03T21:27:40.243Z,18.30
2023-10-03T21:32:43.648Z,18.20
2023-10-03T21:37:48.083Z,18.10
2023-10-03T21:42:53.063Z,18.10
2023-10-03T21:47:56.254Z,18.10
2023-10-03T21:52:59.295Z,18.10
2023-10-03T21:58:04.013Z,18.10
2023-10-03T22:03:09.235Z,18.00
2023-10-03T22:08:12.404Z,17.90
2023-10-03T22:13:18.551Z,17.60
2023-10-03T22:18:22.015Z,17.30
2023-10-03T22:23:26.104Z,17.20
2023-10-03T22:28:30.547Z,16.90
2023-10-03T22:33:33.689Z,17.20
2023-10-03T22:38:37.128Z,17.20
2023-10-03T22:43:41.840Z,17.40
2023-10-03T22:48:44.947Z,17.40
2023-10-03T22:53:48.259Z,17.50
2023-10-03T22:58:53.132Z,17.50
2023-10-03T23:03:56.116Z,17.20
2023-10-03T23:08:59.181Z,17.10
2023-10-03T23:14:04.197Z,17.20
2023-10-03T23:19:07.824Z,17.10
2023-10-03T23:24:12.563Z,17.10
2023-10-03T23:29:17.030Z,17.10
2023-10-03T23:34:19.992Z,16.90
2023-10-03T23:39:23.075Z,16.80
2023-10-03T23:44:27.542Z,16.90
2023-10-03T23:49:31.182Z,16.80
2023-10-03T23:54:37.433Z,16.80
2023-10-03T23:59:41.879Z,16.80
